Startpagina
METAR-TAF:

METAR-TAF

Vliegvelden :

Luchthaven Phnom Penh

Phnom-Penh, Cambodja

breedte: 11-33N, lengte: 104-51E, hoogte: 10 m

Actueel weer

Dit bericht is 26 minuten geleden gemaakt, om 18:30 UTC
Wind 7 kt uit het zuidwesten
Temperatuur 28°C
Vochtigheid 89%
Druk 1007 hPa
Zicht: 9000 m
Verspreide wolken op 1500 ft
Verspreide wolken op 4000 ft

METAR: VDPP 171830Z 22007KT 9000 SCT015 SCT040 28/26 Q1007

Tijdstip: 01:56 (18:56 UTC)

Verwachting

Dit bericht is 1 uur en het 56 minuten geleden gemaakt, om 17:00 UTC
Verwachting geldig van 17 om 18 UTC tot 18 om 12 UTC
Wind 10 kt uit het westzuidwesten
Zicht 10 km of meer
Verspreide wolken op 1700 ft
Verspreide wolken op 4000 ft

TAF: VDPP 171700Z 1718/1812 25010KT 9999 SCT017 SCT040

Waarnemingen en weersverwachtingen van meer dan 4000 vliegvelden (METAR en TAF).

De beschikbare stations zijn de gele en rode punten op de kaart.

Ga met uw muis naar het station om de naam te zien.

Klik dan om waarnemingen en weersverwachtingen te zien.

kaart wijzigen: klik op de groene knoppen met een zwart kruis om in te zoomen, op de groene knop met een streepje om uit te zoomen of op de groene pijlen voor aangrenzende kaarten.


METAR-TAF: